Lance Creek, WY (82222)

5:04 PM MDT on July 28, 2015 (GMT -0600)
Converse County | | Change Station
CLOSE
Current Station
Airport
Location: Douglas,
Elevation: 4928 ft
Nearby Weather Stations
Active Advisory: Fire Weather Warning

Elev 4928 ft 42.80 °N, 105.38 °W | Updated 11 minutes ago

Clear
Clear
78 °F
Feels Like 78 °F
N
20
Wind Variable Wind from NW
Gusts 30 mph

Today
High -- | Low -- °F
--% Chance of Precip.
Yesterday
High -- | Low -- °F
Precip. -- in
5:44 AM 8:24 PM
Waxing Gibbous, 92% visible
Pressure 30.01 in
Visibility 10.0 miles
Clouds Clear
Dew Point 17 °F
Humidity 10%
Rainfall 0.00 in
Snow Depth Not available.
UV 5 out of 12
Pollen 6.50 out of 12
Air Quality Not available.
Flu Activity Not available.
METAR KDGW 282253Z AUTO 31017G26KT 10SM CLR 26/M08 A3016 RMK AO2 PK WND 29030/2211 SLP162 T02561083

More Conditions Fewer Conditions

Pressure 30.01 in
Visibility 10.0 miles
Clouds Clear
Dew Point 17 °F
Humidity 10%
Rainfall 0.00 in
Snow Depth Not available.
UV 5 out of 12
Pollen 6.50 out of 12
Air Quality Not available.
Flu Activity Not available.
METAR KDGW 282253Z AUTO 31017G26KT 10SM CLR 26/M08 A3016 RMK AO2 PK WND 29030/2211 SLP162 T02561083

More Conditions Fewer Conditions

10-Day Weather Forecast

×

Almanac

Astronomy

Jul. 28, 2015 Rise Set
Actual Time
Civil Twilight
Nautical Twilight
Astronomical Twilight
Moon
Length of Visible Light
Length of Day
Tomorrow will be .
, % of the Moon is Illuminated

Today's Extremes

State Highs State Lows

Community

WunderPhotos

Upload Photos

1,841,963 photos uploaded!

WunderBlogs® & News

Nearby

Air Quality

  Air Quality AQ Index Pollutant
Not available.

Snow Depth

Station Depth Elevation

Earthquake Activity

City Distance Mag. Time & Date
Minimum magnitude displayed is 2.5.

Coastal Water Temperatures

Place Temperature

Stations

Nearby Weather Stations

Station Location Temp. Windchill Dew Point Humidity Wind Precip. Elev Updated Type
                   
Fire Weather Warning
Statement as of 12:46 PM MDT on July 28, 2015

... Red flag warning in effect until 7 PM MDT this evening for low
humidities and gusty winds for fire weather zones 301 and 310...

The National Weather Service in Cheyenne has issued a red flag
warning... which is in effect until 7 PM MDT this evening.

* Affected area... fire weather zones 301 and 310.

* Wind... west to northwest winds gusting to 25 to 35 mph.

* Humidity... 12-15 percent.

* Impacts... any fires that develop will likely spread rapidly.
Outdoor burning is not recommended.

Precautionary/preparedness actions...

A red flag warning means that critical fire weather conditions
are either occurring now... or will shortly. A combination of
strong winds... low relative humidity... and warm temperatures may
lead to extreme fire behavior.